Asheville Regional Airport
KAVL : now visible

Airfield :











YOU CAN JOIN US ON...

 
LOGIN :

Register | Disclaimer

   EN    FR    IT 

 









Legend :    VFR   Marginal VFR   IFR   Intensive IFR   Very Intensive IFR
Visi :
Ceiling :
>= 8 km
>= 3000ft
5 to 8 km
1000 to 3000 ft
1500m to 5 km
500 to 1000 ft
800 to 1500m
200 to 500 ft
< 800m
< 200 ft
Symbols :   Thunderstorms  Fog  Heavy snow  Heavy precipitations  Wind > 20 kt






- Airport Elevation : 2165 ft
- IATA code : AVL


KAVL - Asheville Regional

CURRENT METAR :
  • 231919Z 13005KT 10SM FEW110 23/18 A3006 RMK AO2 T02330178

EXPIRED METARs :
  • 231904Z 00000KT 10SM VCTS CLR 23/19 A3006 RMK AO2 T02330189
  • 231854Z 00000KT 10SM CLR 25/17 A3006 RMK AO2 RAE33 TSE05 SLP153 P0004 T02500172
  • 231811Z 15005KT 7SM -RA SCT050 OVC075 22/17 A3008 RMK AO2 TSE05 P0003 T02170172
  • 231754Z VRB04KT 3SM +TSRA FEW055 BKN075 OVC110 22/19 A3009 RMK AO2 RAB27 TSB50 SLP165 P0004 60004 T02220189 10272 20178 55000
  • 231654Z 35007KT 10SM FEW043 FEW050 SCT120 27/15 A3007 RMK AO2 SLP155 T02670150
  • 231554Z 00000KT 10SM CLR 26/17 A3007 RMK AO2 SLP155 T02610167
  • 231454Z 00000KT 10SM CLR 24/16 A3009 RMK AO2 SLP162 T02390161 50003

TAF KAVL
Valid from the 23 at 18:00 until the 24 at 18:00 UTC


231759Z 2318/2418 31005KT P6SM VCSH SCT045
TEMPO 2318/2319 4SM TSRA OVC030CB
FM232000 32008KT P6SM VCTS BKN050CB
TEMPO 2321/2401 4SM TSRA BR OVC020CB
FM240600 VRB02KT 3SM BR BKN100
FM241000 VRB02KT 1SM BR SCT004
FM241300 VRB02KT P6SM SCT230
KZTL FIR / North America



MET'MAP, your aeronautical weather chart ! - Copyright ORBIFLY December 2007 - Disclaimer

ORBIFLY MET'MAP TEAM :

Programming & Development : Alexandra Zaïnal
Original concept : Baudouin d'Aumeries
Technical & hardware support : Manuel Goepfert
Assistance : Marc-Olivier Méhu




SOURCES & CREDITS :

   NOAA       Earth
Advisory